Lowesville, Virginia
Current Conditions -  °F | °C
As of 6:35 AM on Thursday 18 Dec 2014 (Local Time) from KW13 Reporting Station
Clear Clear  
Wind Chill: 21°   Ceiling: Unl
Heat Index: 29°   Visibility: 10mi
Dew Point: 18°   Wind: 7mph
Humidity: 64%   Direction: 280°W
Pressure: 30.12"   Gusts: NA
Location:  37.8241°N, 78.9649°W
Report Text: KW13 181135Z AUTO 28006KT 10SM CLR M02/M08 A3012 RMK AO1 T10191078
Loading
Personal Weather Stations






























Interactive Weather Map New forecast layout! Learn more

10-Day Weather Forecast

Advertisements
Track Severe Weather on mobile